Time;durP1;ratioP1;P1;durP2;ratioP2;P2;SDS_P1;SDS_P2;PMS_P1;PMS_P2;Temp;Humidity;BMP_temperature;BMP_pressure;BME280_temperature;BME280_humidity;BME280_pressure;Samples;Min_cycle;Max_cycle;Signal;HPM_P1;HPM_P2
2023/05/05 00:00:40;;;;;;;2.83;2.60;;;;;;;11.05;100.00;99620.22;5090918;28;20201;-75
2023/05/05 00:03:06;;;;;;;5.03;2.67;;;;;;;11.20;100.00;99618.38;5091457;28;20221;-75
2023/05/05 00:05:33;;;;;;;4.40;2.83;;;;;;;11.13;100.00;99622.28;5091014;28;20209;-75
2023/05/05 00:08:02;;;;;;;3.70;2.13;;;;;;;11.09;100.00;99617.38;5090843;28;20233;-75
2023/05/05 00:10:29;;;;;;;2.70;2.23;;;;;;;11.01;100.00;99622.16;5091022;28;20592;-75
2023/05/05 00:12:55;;;;;;;5.23;2.77;;;;;;;10.99;100.00;99616.31;5090984;28;20222;-75
2023/05/05 00:15:22;;;;;;;3.37;2.63;;;;;;;11.05;100.00;99615.94;5090703;28;20230;-74
2023/05/05 00:17:49;;;;;;;4.93;2.77;;;;;;;11.05;100.00;99621.06;5090494;28;20225;-74
2023/05/05 00:20:16;;;;;;;4.33;2.87;;;;;;;11.03;100.00;99617.78;5090785;28;20216;-75
2023/05/05 00:22:43;;;;;;;5.60;3.57;;;;;;;11.04;100.00;99618.59;5090500;28;20222;-75
2023/05/05 00:25:11;;;;;;;4.83;3.23;;;;;;;11.07;100.00;99619.19;5090680;28;20685;-75
2023/05/05 00:27:38;;;;;;;4.50;3.00;;;;;;;11.13;100.00;99612.03;5090702;28;20222;-75
2023/05/05 00:30:06;;;;;;;3.83;2.50;;;;;;;11.04;100.00;99619.41;5090709;28;20662;-75
2023/05/05 00:32:33;;;;;;;6.63;2.97;;;;;;;10.99;100.00;99618.06;5090484;28;20229;-75
2023/05/05 00:35:00;;;;;;;2.73;2.37;;;;;;;11.00;100.00;99612.84;5089546;28;20312;-75
2023/05/05 00:37:27;;;;;;;3.63;2.20;;;;;;;11.04;100.00;99618.59;5090494;28;20746;-76
2023/05/05 00:39:54;;;;;;;5.33;3.47;;;;;;;11.03;100.00;99617.78;5090644;28;20212;-76
2023/05/05 00:42:22;;;;;;;2.47;1.93;;;;;;;10.95;100.00;99614.88;5090329;28;20248;-75
2023/05/05 00:44:49;;;;;;;4.13;2.50;;;;;;;10.99;100.00;99616.31;5090606;28;20206;-75
2023/05/05 00:47:17;;;;;;;6.93;2.27;;;;;;;10.98;100.00;99612.13;5090448;28;20229;-75
2023/05/05 00:49:44;;;;;;;3.90;2.27;;;;;;;11.05;100.00;99615.09;5090268;28;20205;-75
2023/05/05 00:52:11;;;;;;;3.33;2.17;;;;;;;11.11;100.00;99619.81;5090263;28;20290;-75
2023/05/05 00:54:39;;;;;;;3.00;2.33;;;;;;;11.15;100.00;99620.44;5090271;28;20241;-75
2023/05/05 00:57:06;;;;;;;5.80;2.57;;;;;;;11.02;100.00;99616.13;5090120;28;20287;-76
2023/05/05 00:59:36;;;;;;;5.03;2.90;;;;;;;10.94;100.00;99608.16;5090026;28;20213;-76
2023/05/05 01:02:03;;;;;;;4.07;2.80;;;;;;;11.01;100.00;99609.38;5089752;28;20209;-76
2023/05/05 01:04:30;;;;;;;5.20;3.13;;;;;;;10.98;100.00;99609.56;5089969;28;20218;-75
2023/05/05 01:07:07;;;;;;;3.97;2.27;;;;;;;11.03;100.00;99612.66;5089706;28;20201;-76
2023/05/05 01:09:38;;;;;;;5.97;3.00;;;;;;;11.16;100.00;99609.28;5090027;28;20709;-75
2023/05/05 01:12:13;;;;;;;5.23;2.63;;;;;;;11.18;100.00;99604.88;5090195;28;20645;-75
2023/05/05 01:14:47;;;;;;;2.97;2.27;;;;;;;11.27;100.00;99609.38;5089756;28;20228;-75
2023/05/05 01:17:17;;;;;;;4.53;2.87;;;;;;;11.32;100.00;99604.78;5089778;28;20224;-75
2023/05/05 01:19:58;;;;;;;4.20;2.47;;;;;;;11.37;100.00;99605.28;5089874;28;20194;-76
2023/05/05 01:22:44;;;;;;;4.23;2.80;;;;;;;11.42;100.00;99608.34;5090015;28;20209;-74
2023/05/05 01:25:41;;;;;;;5.07;2.97;;;;;;;11.51;100.00;99607.72;5089844;28;20208;-76
2023/05/05 01:28:24;;;;;;;3.77;2.20;;;;;;;11.56;100.00;99604.88;5089586;28;20229;-75
2023/05/05 01:31:06;;;;;;;4.47;2.80;;;;;;;11.56;100.00;99610.81;5089996;28;20197;-75
2023/05/05 01:33:41;;;;;;;2.87;2.30;;;;;;;11.59;100.00;99619.22;5090133;28;20292;-76
2023/05/05 01:36:13;;;;;;;2.83;2.43;;;;;;;11.61;100.00;99602.00;5089612;28;20233;-76
2023/05/05 01:38:43;;;;;;;4.27;2.90;;;;;;;11.56;100.00;99602.31;5089753;28;20697;-75
2023/05/05 01:41:15;;;;;;;3.80;2.17;;;;;;;11.56;100.00;99605.69;5089963;28;20234;-75
2023/05/05 01:43:45;;;;;;;4.83;2.73;;;;;;;11.57;100.00;99602.19;5089430;28;20213;-75
2023/05/05 01:46:14;;;;;;;3.47;2.13;;;;;;;11.65;100.00;99606.78;5091940;28;20229;-75
2023/05/05 01:48:44;;;;;;;4.57;3.30;;;;;;;11.64;100.00;99606.91;5093153;28;20214;-75
2023/05/05 01:51:13;;;;;;;5.80;3.57;;;;;;;11.63;100.00;99595.81;5093427;28;20312;-76
2023/05/05 01:53:41;;;;;;;4.27;3.00;;;;;;;11.56;100.00;99600.56;5093601;28;20218;-76
2023/05/05 01:56:09;;;;;;;4.83;2.67;;;;;;;11.66;100.00;99610.16;5093306;28;20241;-75
2023/05/05 01:58:37;;;;;;;4.57;2.67;;;;;;;11.67;100.00;99607.53;5093413;28;20221;-75
2023/05/05 02:01:05;;;;;;;4.20;3.20;;;;;;;11.66;100.00;99599.94;5093983;28;20194;-76
2023/05/05 02:03:33;;;;;;;5.03;3.07;;;;;;;11.69;100.00;99599.72;5093149;28;20218;-75
2023/05/05 02:06:02;;;;;;;8.77;2.93;;;;;;;11.63;100.00;99595.00;5093289;28;20210;-76
2023/05/05 02:08:31;;;;;;;4.10;2.50;;;;;;;11.68;100.00;99598.09;5093005;28;20310;-75
2023/05/05 02:10:59;;;;;;;5.57;2.93;;;;;;;11.72;100.00;99594.38;5093123;28;20198;-75
2023/05/05 02:13:29;;;;;;;4.50;2.70;;;;;;;11.74;100.00;99587.41;5092739;28;20282;-75
2023/05/05 02:15:56;;;;;;;5.77;3.33;;;;;;;11.77;100.00;99592.31;5092906;28;20229;-75
2023/05/05 02:18:25;;;;;;;3.37;2.53;;;;;;;11.86;100.00;99591.72;5093126;28;20713;-75
2023/05/05 02:20:53;;;;;;;3.97;2.63;;;;;;;11.87;100.00;99592.53;5093174;28;20225;-75
2023/05/05 02:23:21;;;;;;;3.23;2.63;;;;;;;11.85;100.00;99590.09;5092712;28;20210;-75
2023/05/05 02:25:51;;;;;;;3.30;2.17;;;;;;;11.83;100.00;99594.47;5093106;28;20194;-75
2023/05/05 02:28:22;;;;;;;2.97;2.67;;;;;;;11.83;100.00;99591.91;5093188;28;20779;-76
2023/05/05 02:30:55;;;;;;;5.13;2.87;;;;;;;11.93;100.00;99598.06;5092643;28;20202;-76
2023/05/05 02:33:23;;;;;;;6.73;3.67;;;;;;;11.94;100.00;99589.44;5092591;28;20303;-76
2023/05/05 02:35:53;;;;;;;4.97;2.77;;;;;;;11.92;100.00;99598.16;5092741;28;20226;-76
2023/05/05 02:38:26;;;;;;;5.33;3.60;;;;;;;11.93;100.00;99595.50;5092855;28;20593;-75
2023/05/05 02:40:55;;;;;;;3.13;2.23;;;;;;;11.93;100.00;99592.13;5092716;28;20201;-75
2023/05/05 02:43:25;;;;;;;3.07;2.63;;;;;;;11.78;100.00;99588.84;5092565;28;20222;-75
2023/05/05 02:45:52;;;;;;;4.27;2.40;;;;;;;11.72;100.00;99587.53;5092652;28;20209;-75
2023/05/05 02:48:19;;;;;;;5.97;3.20;;;;;;;11.69;100.00;99585.19;5092328;28;20224;-76
2023/05/05 02:50:45;;;;;;;3.13;2.20;;;;;;;11.73;100.00;99589.16;5092348;28;20220;-76
2023/05/05 02:53:12;;;;;;;4.30;2.63;;;;;;;11.71;100.00;99588.44;5092397;28;20217;-75
2023/05/05 02:55:49;;;;;;;5.27;2.83;;;;;;;11.67;100.00;99586.22;5092350;28;20838;-75
2023/05/05 02:58:22;;;;;;;4.73;3.37;;;;;;;11.66;100.00;99584.56;5091615;28;20229;-75
2023/05/05 03:00:57;;;;;;;5.53;3.37;;;;;;;11.62;100.00;99583.16;5092326;28;20194;-75
2023/05/05 03:03:30;;;;;;;3.57;2.07;;;;;;;11.49;100.00;99578.88;5092121;28;20214;-76
2023/05/05 03:06:05;;;;;;;4.70;2.30;;;;;;;11.44;100.00;99574.97;5091970;28;20202;-76
2023/05/05 03:08:40;;;;;;;4.07;2.37;;;;;;;11.39;100.00;99577.84;5092349;28;20502;-76
2023/05/05 03:11:16;;;;;;;3.97;2.97;;;;;;;11.34;100.00;99569.66;5092036;28;20670;-76
2023/05/05 03:13:44;;;;;;;3.73;2.60;;;;;;;11.34;100.00;99574.75;5091891;28;20228;-75
2023/05/05 03:16:13;;;;;;;6.57;3.30;;;;;;;11.42;100.00;99580.19;5091812;28;20230;-76
2023/05/05 03:18:41;;;;;;;7.87;2.70;;;;;;;11.45;100.00;99567.19;5091734;28;20221;-76
2023/05/05 03:21:09;;;;;;;4.13;3.17;;;;;;;11.44;100.00;99575.78;5092008;28;20247;-76
2023/05/05 03:23:36;;;;;;;6.07;3.43;;;;;;;11.46;100.00;99579.09;5091669;28;20214;-75
2023/05/05 03:26:03;;;;;;;3.47;2.63;;;;;;;11.52;100.00;99586.34;5091812;28;20202;-76
2023/05/05 03:28:31;;;;;;;4.20;2.80;;;;;;;11.55;100.00;99583.56;5092015;28;20222;-75
2023/05/05 03:30:58;;;;;;;5.77;3.17;;;;;;;11.57;100.00;99589.38;5091687;28;20604;-76
2023/05/05 03:33:25;;;;;;;4.20;2.83;;;;;;;11.54;100.00;99583.66;5091519;28;20221;-76
2023/05/05 03:35:52;;;;;;;4.13;2.97;;;;;;;11.57;100.00;99586.00;5091680;28;20236;-75
2023/05/05 03:38:19;;;;;;;4.60;2.30;;;;;;;11.60;100.00;99592.66;5091761;28;20221;-75
2023/05/05 03:40:45;;;;;;;4.70;2.80;;;;;;;11.62;100.00;99593.38;5091687;28;20190;-76
2023/05/05 03:43:12;;;;;;;6.63;3.03;;;;;;;11.66;100.00;99594.81;5091135;28;20214;-76
2023/05/05 03:45:40;;;;;;;4.80;2.60;;;;;;;11.64;100.00;99591.56;5091509;28;20225;-75
2023/05/05 03:48:08;;;;;;;4.73;2.83;;;;;;;11.56;100.00;99586.94;5091323;28;20221;-76
2023/05/05 03:50:35;;;;;;;5.13;3.10;;;;;;;11.50;100.00;99590.75;5091556;28;20198;-76
2023/05/05 03:53:02;;;;;;;3.43;2.40;;;;;;;11.53;100.00;99587.97;5091161;28;20210;-75
2023/05/05 03:55:29;;;;;;;5.23;3.17;;;;;;;11.56;100.00;99589.50;5091263;28;20234;-75
2023/05/05 03:57:56;;;;;;;3.87;2.50;;;;;;;11.62;100.00;99594.19;5091037;28;20706;-76
2023/05/05 04:00:23;;;;;;;5.27;2.70;;;;;;;11.69;100.00;99600.56;5091019;28;20327;-75
2023/05/05 04:02:51;;;;;;;3.57;2.63;;;;;;;11.74;100.00;99597.66;5091134;28;20240;-75
2023/05/05 04:05:18;;;;;;;4.33;2.53;;;;;;;11.77;100.00;99607.69;5091213;28;20214;-75
2023/05/05 04:07:45;;;;;;;3.43;2.60;;;;;;;11.80;100.00;99602.38;5090893;28;20234;-75
2023/05/05 04:10:12;;;;;;;5.67;2.73;;;;;;;11.82;100.00;99605.66;5090977;28;20201;-75
2023/05/05 04:12:39;;;;;;;4.63;3.10;;;;;;;11.85;100.00;99612.31;5090860;28;20240;-76
2023/05/05 04:15:07;;;;;;;4.10;2.70;;;;;;;11.88;100.00;99614.69;5090981;28;20294;-75
2023/05/05 04:17:33;;;;;;;4.63;3.23;;;;;;;11.87;100.00;99611.31;5090711;28;20261;-76
2023/05/05 04:20:02;;;;;;;5.33;3.43;;;;;;;11.92;100.00;99611.78;5090965;28;20194;-76
2023/05/05 04:22:29;;;;;;;4.40;3.30;;;;;;;11.95;100.00;99614.13;5090590;28;20343;-75
2023/05/05 04:24:55;;;;;;;3.43;2.17;;;;;;;11.93;100.00;99612.63;5090628;28;21051;-75
2023/05/05 04:27:24;;;;;;;5.93;2.70;;;;;;;11.95;100.00;99611.56;5090715;28;20217;-76
2023/05/05 04:29:51;;;;;;;5.40;2.57;;;;;;;12.02;100.00;99611.97;5090688;28;20288;-76
2023/05/05 04:32:18;;;;;;;4.47;2.30;;;;;;;12.04;100.00;99607.56;5090480;28;20195;-76
2023/05/05 04:34:45;;;;;;;4.07;2.70;;;;;;;12.06;100.00;99610.84;5090373;28;20202;-75
2023/05/05 04:37:14;;;;;;;3.80;2.97;;;;;;;12.17;100.00;99610.91;5090494;28;20572;-76
2023/05/05 04:39:41;;;;;;;4.87;3.03;;;;;;;12.15;100.00;99611.94;5090530;28;20210;-75
2023/05/05 04:42:07;;;;;;;6.67;3.07;;;;;;;12.07;100.00;99615.06;5090383;28;20253;-76
2023/05/05 04:44:34;;;;;;;4.60;2.73;;;;;;;12.13;100.00;99614.63;5090271;28;20273;-75
2023/05/05 04:47:02;;;;;;;5.23;3.10;;;;;;;12.14;100.00;99612.88;5090603;28;20600;-76
2023/05/05 04:49:29;;;;;;;4.43;3.23;;;;;;;12.26;100.00;99617.13;5090051;28;20226;-76
2023/05/05 04:51:57;;;;;;;3.37;2.23;;;;;;;12.21;100.00;99614.88;5090365;28;20244;-75
2023/05/05 04:54:25;;;;;;;5.30;3.23;;;;;;;12.32;100.00;99619.25;5090262;28;20240;-76
2023/05/05 04:56:52;;;;;;;4.63;3.30;;;;;;;12.29;100.00;99616.91;5090057;28;20229;-76
2023/05/05 04:59:18;;;;;;;4.30;2.47;;;;;;;12.34;100.00;99619.97;5089836;28;20218;-76
2023/05/05 05:01:45;;;;;;;4.60;2.73;;;;;;;12.49;100.00;99623.19;5090161;28;20212;-75
2023/05/05 05:04:12;;;;;;;3.77;2.83;;;;;;;12.46;100.00;99626.78;5090214;28;20214;-75
2023/05/05 05:06:39;;;;;;;4.50;3.07;;;;;;;12.52;100.00;99624.72;5090125;28;20703;-76
2023/05/05 05:09:06;;;;;;;6.77;3.40;;;;;;;12.48;100.00;99625.84;5089831;28;20586;-75
2023/05/05 05:11:34;;;;;;;7.83;3.03;;;;;;;12.53;100.00;99634.84;5089673;28;20206;-75
2023/05/05 05:14:01;;;;;;;4.27;3.00;;;;;;;12.53;100.00;99631.47;5089972;28;20653;-75
2023/05/05 05:16:28;;;;;;;6.83;3.53;;;;;;;12.51;100.00;99638.44;5089832;28;20226;-76
2023/05/05 05:18:55;;;;;;;5.57;3.60;;;;;;;12.52;100.00;99642.66;5089516;28;20220;-75
2023/05/05 05:21:21;;;;;;;6.00;3.60;;;;;;;12.77;100.00;99647.69;5089355;28;20202;-75
2023/05/05 05:23:48;;;;;;;7.40;3.63;;;;;;;12.82;100.00;99643.00;5089622;28;20222;-76
2023/05/05 05:26:15;;;;;;;5.67;2.90;;;;;;;12.71;100.00;99645.53;5089745;28;20663;-76
2023/05/05 05:28:43;;;;;;;9.33;3.93;;;;;;;12.88;100.00;99645.13;5089437;28;20226;-76
2023/05/05 05:31:10;;;;;;;6.10;3.47;;;;;;;12.86;100.00;99648.75;5089651;28;20199;-76
2023/05/05 05:33:37;;;;;;;5.37;3.17;;;;;;;12.96;100.00;99648.91;5089412;28;20220;-77
2023/05/05 05:36:04;;;;;;;6.67;4.97;;;;;;;12.88;100.00;99647.69;5089814;28;20729;-76
2023/05/05 05:38:32;;;;;;;5.63;3.27;;;;;;;12.99;100.00;99638.41;5089535;28;20335;-76
2023/05/05 05:40:58;;;;;;;12.87;4.50;;;;;;;13.11;100.00;99640.06;5089540;28;20299;-75
2023/05/05 05:43:25;;;;;;;9.30;4.77;;;;;;;13.14;100.00;99642.41;5089394;28;20605;-76
2023/05/05 05:45:53;;;;;;;6.20;4.23;;;;;;;13.43;100.00;99649.72;5089513;28;20204;-75
2023/05/05 05:48:23;;;;;;;7.67;4.30;;;;;;;13.42;100.00;99645.53;5089432;28;20644;-76
2023/05/05 05:50:50;;;;;;;8.43;4.60;;;;;;;13.49;100.00;99651.84;5089687;28;20660;-76
2023/05/05 05:53:17;;;;;;;6.17;4.27;;;;;;;13.49;100.00;99652.66;5089064;28;20236;-75
2023/05/05 05:55:46;;;;;;;7.13;4.47;;;;;;;13.50;100.00;99653.50;5089497;28;20312;-75
2023/05/05 05:58:12;;;;;;;7.50;4.33;;;;;;;13.65;100.00;99652.31;5089485;28;20228;-75
2023/05/05 06:00:39;;;;;;;8.03;4.80;;;;;;;13.75;100.00;99652.44;5089520;28;20207;-76
2023/05/05 06:03:07;;;;;;;7.07;3.80;;;;;;;13.79;100.00;99653.84;5089174;28;20701;-75
2023/05/05 06:05:34;;;;;;;6.53;4.00;;;;;;;13.86;100.00;99644.72;5089625;28;20202;-76
2023/05/05 06:08:01;;;;;;;11.47;4.43;;;;;;;14.01;100.00;99653.00;5089479;28;20214;-76
2023/05/05 06:10:28;;;;;;;7.30;3.50;;;;;;;13.97;100.00;99649.03;5089297;28;20204;-75
2023/05/05 06:12:55;;;;;;;6.23;3.90;;;;;;;14.19;100.00;99654.13;5089246;28;20230;-76
2023/05/05 06:15:22;;;;;;;6.87;3.60;;;;;;;14.29;100.00;99659.38;5089388;28;20208;-75
2023/05/05 06:17:48;;;;;;;5.47;3.30;;;;;;;14.23;100.00;99665.81;5089433;28;20220;-75
2023/05/05 06:20:17;;;;;;;6.87;3.80;;;;;;;14.27;100.00;99669.78;5089349;28;20225;-75
2023/05/05 06:22:44;;;;;;;4.87;2.70;;;;;;;14.35;100.00;99660.66;5089074;28;20218;-75
2023/05/05 06:25:11;;;;;;;7.23;4.20;;;;;;;14.18;100.00;99662.78;5089104;28;20209;-75
2023/05/05 06:27:37;;;;;;;7.30;4.30;;;;;;;14.27;100.00;99662.06;5089134;28;20271;-75
2023/05/05 06:30:05;;;;;;;9.23;4.57;;;;;;;14.39;100.00;99662.84;5089319;28;20206;-76
2023/05/05 06:32:32;;;;;;;6.63;3.80;;;;;;;14.48;100.00;99662.13;5089796;28;20229;-76
2023/05/05 06:34:59;;;;;;;4.77;3.40;;;;;;;14.42;100.00;99654.88;5092731;28;20320;-75
2023/05/05 06:37:27;;;;;;;6.47;3.77;;;;;;;14.52;100.00;99664.50;5092661;28;20226;-76
2023/05/05 06:39:54;;;;;;;6.77;3.60;;;;;;;14.64;100.00;99656.63;5092576;28;20209;-75
2023/05/05 06:42:20;;;;;;;11.40;4.30;;;;;;;14.61;100.00;99667.16;5092956;28;20573;-77
2023/05/05 06:44:47;;;;;;;6.60;3.90;;;;;;;14.56;100.00;99664.13;5092879;28;20356;-77
2023/05/05 06:47:14;;;;;;;7.17;4.20;;;;;;;14.73;100.00;99665.34;5092499;28;20194;-76
2023/05/05 06:49:41;;;;;;;7.43;3.73;;;;;;;14.87;100.00;99662.50;5092500;28;20210;-77
2023/05/05 06:52:08;;;;;;;6.37;4.27;;;;;;;14.86;100.00;99670.31;5092648;28;20205;-76
2023/05/05 06:54:36;;;;;;;5.67;3.60;;;;;;;14.83;100.00;99675.72;5094478;28;20217;-75
2023/05/05 06:57:03;;;;;;;7.07;4.43;;;;;;;14.94;100.00;99662.81;5094858;28;20601;-76
2023/05/05 06:59:30;;;;;;;7.30;3.70;;;;;;;15.07;100.00;99673.75;5092248;28;20214;-76
2023/05/05 07:01:56;;;;;;;7.03;4.03;;;;;;;15.16;100.00;99667.84;5092368;28;20199;-75
2023/05/05 07:04:23;;;;;;;6.73;3.93;;;;;;;15.16;100.00;99673.00;5092299;28;20589;-77
2023/05/05 07:06:50;;;;;;;8.77;4.30;;;;;;;15.36;100.00;99668.78;5092197;28;20199;-76
2023/05/05 07:09:17;;;;;;;6.67;3.70;;;;;;;15.51;100.00;99669.25;5092266;28;20222;-76
2023/05/05 07:11:46;;;;;;;9.43;4.67;;;;;;;15.67;100.00;99675.72;5092038;28;20220;-75
2023/05/05 07:14:13;;;;;;;8.37;4.23;;;;;;;15.67;100.00;99678.28;5091876;28;20236;-77
2023/05/05 07:16:40;;;;;;;6.60;4.00;;;;;;;15.45;100.00;99677.50;5091921;28;20222;-77
2023/05/05 07:19:06;;;;;;;6.27;3.80;;;;;;;15.52;100.00;99677.81;5091682;28;20255;-76
2023/05/05 07:21:34;;;;;;;6.70;4.53;;;;;;;15.76;100.00;99685.28;5091892;28;20464;-77
2023/05/05 07:24:02;;;;;;;8.87;4.47;;;;;;;15.87;100.00;99681.78;5091772;28;20224;-77
2023/05/05 07:26:29;;;;;;;7.73;4.33;;;;;;;16.16;100.00;99681.88;5091810;28;20659;-77
2023/05/05 07:28:58;;;;;;;8.67;4.17;;;;;;;16.24;100.00;99680.28;5091551;28;20685;-76
2023/05/05 07:31:25;;;;;;;6.17;4.30;;;;;;;16.29;100.00;99679.91;5091490;28;20204;-77
2023/05/05 07:33:52;;;;;;;8.03;4.10;;;;;;;16.39;100.00;99672.97;5091454;28;20225;-75
2023/05/05 07:36:18;;;;;;;4.87;3.77;;;;;;;16.73;100.00;99680.34;5091662;28;20238;-77
2023/05/05 07:38:45;;;;;;;6.27;3.20;;;;;;;17.04;100.00;99682.78;5091663;28;20706;-77
2023/05/05 07:41:12;;;;;;;6.83;3.87;;;;;;;17.48;100.00;99675.38;5091723;28;20203;-76
2023/05/05 07:43:40;;;;;;;5.23;4.00;;;;;;;17.45;100.00;99679.03;5091284;28;20211;-76
2023/05/05 07:46:08;;;;;;;4.40;2.87;;;;;;;17.84;100.00;99674.59;5091373;28;20675;-76
2023/05/05 07:48:35;;;;;;;5.00;3.30;;;;;;;17.83;99.66;99672.97;5091117;28;20614;-75
2023/05/05 07:51:02;;;;;;;4.57;3.00;;;;;;;18.05;99.59;99678.72;5091542;28;20291;-75
2023/05/05 07:53:29;;;;;;;4.97;3.47;;;;;;;18.40;98.48;99682.31;5091076;28;20249;-76
2023/05/05 07:55:56;;;;;;;4.50;2.60;;;;;;;17.90;95.99;99680.97;5091435;28;20689;-76
2023/05/05 07:58:23;;;;;;;4.00;2.93;;;;;;;18.16;97.54;99675.94;5091133;28;20238;-77
2023/05/05 08:00:50;;;;;;;4.90;3.30;;;;;;;18.27;93.82;99678.31;5091366;28;20217;-75
2023/05/05 08:03:22;;;;;;;5.53;3.43;;;;;;;18.05;92.71;99681.31;5090916;28;20215;-75
2023/05/05 08:05:49;;;;;;;4.97;2.97;;;;;;;18.02;95.01;99684.19;5091253;28;20741;-77
2023/05/05 08:08:16;;;;;;;4.70;3.37;;;;;;;18.36;91.04;99686.19;5091313;28;20219;-76
2023/05/05 08:10:43;;;;;;;7.10;3.73;;;;;;;18.96;95.06;99678.63;5090946;28;20662;-75
2023/05/05 08:13:10;;;;;;;5.87;3.47;;;;;;;19.08;90.16;99687.00;5090643;28;20220;-76
2023/05/05 08:15:37;;;;;;;4.07;3.03;;;;;;;18.78;89.97;99689.03;5090921;28;20715;-75
2023/05/05 08:18:03;;;;;;;4.67;3.57;;;;;;;18.80;91.75;99689.69;5090751;28;20646;-77
2023/05/05 08:20:32;;;;;;;5.37;3.70;;;;;;;19.00;90.69;99682.56;5090667;28;20209;-77
2023/05/05 08:22:59;;;;;;;4.70;3.73;;;;;;;18.92;86.89;99690.28;5090619;28;20222;-75
2023/05/05 08:25:26;;;;;;;5.10;3.40;;;;;;;18.36;88.90;99687.00;5090797;28;20694;-77
2023/05/05 08:27:53;;;;;;;4.93;3.53;;;;;;;18.38;92.51;99681.66;5090466;28;20229;-77
2023/05/05 08:30:21;;;;;;;5.77;3.70;;;;;;;18.63;92.26;99687.88;5090621;28;20207;-77
2023/05/05 08:32:48;;;;;;;6.30;3.57;;;;;;;19.41;89.74;99693.22;5090197;28;20217;-78
2023/05/05 08:35:14;;;;;;;3.83;3.13;;;;;;;19.53;85.91;99684.22;5090710;28;20874;-74
2023/05/05 08:37:43;;;;;;;4.00;2.77;;;;;;;19.63;85.89;99682.34;5090206;28;20240;-78
2023/05/05 08:40:13;;;;;;;3.83;3.00;;;;;;;18.75;86.19;99692.72;5090352;28;20219;-75
2023/05/05 08:42:40;;;;;;;3.87;2.80;;;;;;;18.76;84.78;99699.56;5090649;28;20294;-77
2023/05/05 08:45:09;;;;;;;4.17;2.90;;;;;;;19.03;85.05;99700.41;5090428;28;20241;-76
2023/05/05 08:47:36;;;;;;;4.73;3.07;;;;;;;19.37;83.64;99702.25;5090257;28;20727;-77
2023/05/05 08:50:04;;;;;;;4.80;3.50;;;;;;;19.30;84.77;99701.25;5090091;28;20192;-77
2023/05/05 08:52:39;;;;;;;5.47;3.27;;;;;;;19.44;84.85;99703.28;5090529;28;20204;-76
2023/05/05 08:55:14;;;;;;;4.50;3.33;;;;;;;19.35;85.17;99704.22;5089521;28;20276;-78
2023/05/05 08:57:46;;;;;;;5.07;3.60;;;;;;;18.99;85.92;99701.66;5090081;28;20688;-78
2023/05/05 09:00:14;;;;;;;3.73;3.03;;;;;;;18.82;87.78;99699.91;5090251;28;20632;-75
2023/05/05 09:02:42;;;;;;;4.13;3.47;;;;;;;18.78;85.83;99702.78;5090110;28;20213;-79
2023/05/05 09:05:09;;;;;;;7.27;3.30;;;;;;;18.91;84.57;99699.03;5090118;28;20588;-75
2023/05/05 09:07:36;;;;;;;4.37;3.30;;;;;;;19.11;85.96;99695.28;5090375;28;20229;-78
2023/05/05 09:10:04;;;;;;;3.70;2.77;;;;;;;19.37;84.25;99694.47;5090286;28;20216;-75
2023/05/05 09:12:32;;;;;;;4.73;2.93;;;;;;;19.02;80.18;99708.31;5089584;28;20604;-79
2023/05/05 09:15:02;;;;;;;4.13;2.83;;;;;;;18.78;83.04;99700.19;5089768;28;20204;-75
2023/05/05 09:17:30;;;;;;;5.47;3.50;;;;;;;18.99;80.66;99693.88;5089785;28;20260;-78
2023/05/05 09:20:08;;;;;;;4.30;3.00;;;;;;;18.94;81.64;99703.91;5089859;28;20201;-75
2023/05/05 09:22:36;;;;;;;3.40;2.57;;;;;;;18.94;82.83;99690.94;5089595;28;20585;-81
2023/05/05 09:25:04;;;;;;;3.93;2.87;;;;;;;18.61;82.36;99695.78;5089815;28;20195;-78
2023/05/05 09:27:36;;;;;;;3.83;2.53;;;;;;;18.92;83.59;99698.88;5089762;28;20231;-75
2023/05/05 09:30:04;;;;;;;3.87;2.50;;;;;;;19.08;81.46;99698.19;5089848;28;20938;-75
2023/05/05 09:32:42;;;;;;;4.63;2.50;;;;;;;19.13;80.72;99689.94;5089483;28;20201;-78
2023/05/05 09:35:09;;;;;;;4.97;2.27;;;;;;;19.16;81.41;99690.44;5089871;28;20211;-75
2023/05/05 09:37:37;;;;;;;3.43;2.60;;;;;;;18.97;81.37;99690.66;5089948;28;20287;-75
2023/05/05 09:40:05;;;;;;;2.23;2.03;;;;;;;18.66;83.04;99691.00;5089768;28;20195;-75
2023/05/05 09:42:35;;;;;;;3.87;2.57;;;;;;;18.68;84.33;99685.69;5089552;28;20236;-77
2023/05/05 09:45:02;;;;;;;3.37;2.40;;;;;;;18.93;84.51;99690.13;5089697;28;20472;-76
2023/05/05 09:47:35;;;;;;;3.37;2.53;;;;;;;19.14;80.70;99684.63;5089793;28;20205;-75
2023/05/05 09:50:01;;;;;;;3.90;2.77;;;;;;;19.10;80.66;99679.88;5089479;28;20710;-78
2023/05/05 09:52:29;;;;;;;3.60;2.50;;;;;;;18.82;80.88;99681.75;5089541;28;20202;-76
2023/05/05 09:54:56;;;;;;;3.93;2.57;;;;;;;18.92;82.50;99683.31;5089436;28;20204;-76
2023/05/05 09:57:27;;;;;;;3.70;2.90;;;;;;;19.27;81.08;99681.63;5089449;28;20642;-76
2023/05/05 09:59:57;;;;;;;3.83;2.50;;;;;;;19.22;79.72;99676.88;5089480;28;20204;-78
2023/05/05 10:02:31;;;;;;;3.70;2.50;;;;;;;19.56;77.93;99686.50;5089461;28;20201;-76
2023/05/05 10:05:11;;;;;;;3.70;2.30;;;;;;;19.81;77.96;99684.03;5089412;28;20224;-76
2023/05/05 10:07:39;;;;;;;3.37;2.50;;;;;;;19.58;76.20;99681.97;5091851;28;20314;-79
2023/05/05 10:10:08;;;;;;;3.93;2.40;;;;;;;19.71;75.91;99678.16;5093266;28;20239;-78
2023/05/05 10:12:36;;;;;;;3.80;2.50;;;;;;;19.86;77.62;99674.00;5093188;28;20718;-76
2023/05/05 10:15:06;;;;;;;5.37;2.53;;;;;;;19.81;79.29;99678.84;5093333;28;20569;-78
2023/05/05 10:17:36;;;;;;;3.57;2.73;;;;;;;19.83;80.09;99671.72;5092861;28;20233;-75
2023/05/05 10:20:04;;;;;;;3.90;2.73;;;;;;;19.89;77.30;99666.72;5093170;28;20208;-75
2023/05/05 10:22:34;;;;;;;3.13;2.43;;;;;;;20.08;78.05;99663.06;5093213;28;20594;-77
2023/05/05 10:25:09;;;;;;;3.40;2.90;;;;;;;20.09;76.30;99656.91;5092974;28;20375;-76
2023/05/05 10:27:44;;;;;;;3.70;2.60;;;;;;;19.97;76.03;99663.34;5092977;28;20705;-75
2023/05/05 10:30:17;;;;;;;4.20;2.70;;;;;;;20.32;72.83;99664.91;5093106;28;20207;-75
2023/05/05 10:32:47;;;;;;;3.53;2.57;;;;;;;19.74;74.18;99663.09;5092579;28;20213;-75
2023/05/05 10:35:20;;;;;;;3.80;2.43;;;;;;;19.80;76.06;99656.47;5092784;28;20200;-76
2023/05/05 10:37:48;;;;;;;3.23;2.60;;;;;;;20.11;75.13;99662.75;5092892;28;20234;-79
2023/05/05 10:40:15;;;;;;;3.70;2.40;;;;;;;20.00;77.39;99657.84;5092693;28;20208;-80
2023/05/05 10:42:42;;;;;;;3.00;2.40;;;;;;;19.67;80.27;99652.53;5092489;28;20221;-79
2023/05/05 10:45:09;;;;;;;3.57;2.30;;;;;;;19.46;80.99;99654.69;5093117;28;20675;-77
2023/05/05 10:47:39;;;;;;;3.20;2.20;;;;;;;19.13;82.49;99659.66;5092647;28;20222;-79
2023/05/05 10:50:11;;;;;;;4.93;2.13;;;;;;;19.29;83.43;99652.97;5092408;28;20572;-75
2023/05/05 10:52:47;;;;;;;3.13;2.00;;;;;;;18.96;83.19;99657.91;5092460;28;20231;-79
2023/05/05 10:55:18;;;;;;;2.53;2.13;;;;;;;18.99;82.99;99662.78;5092438;28;20192;-79
2023/05/05 10:57:46;;;;;;;2.70;2.03;;;;;;;18.48;84.28;99659.91;5092427;28;20244;-78
2023/05/05 11:00:46;;;;;;;2.13;1.90;;;;;;;18.28;86.93;99663.59;5092283;28;20590;-78
2023/05/05 11:03:22;;;;;;;4.13;2.37;;;;;;;18.00;86.86;99652.44;5092336;28;20216;-78
2023/05/05 11:06:12;;;;;;;3.13;2.30;;;;;;;17.98;88.14;99655.19;5092394;28;20646;-75
2023/05/05 11:08:40;;;;;;;3.13;2.13;;;;;;;17.87;88.97;99653.59;5092300;28;20260;-76
2023/05/05 11:11:09;;;;;;;6.60;2.07;;;;;;;17.57;90.33;99648.66;5092149;28;20689;-78
2023/05/05 11:13:36;;;;;;;3.47;1.90;;;;;;;17.53;90.26;99652.50;5091805;28;20215;-76
2023/05/05 11:16:04;;;;;;;4.60;2.27;;;;;;;17.36;92.82;99641.94;5092167;28;20206;-77
2023/05/05 11:18:35;;;;;;;4.07;2.27;;;;;;;17.19;93.75;99642.66;5090960;28;20234;-77
2023/05/05 11:21:15;;;;;;;3.13;2.27;;;;;;;17.16;94.17;99645.50;5091949;28;20230;-76
2023/05/05 11:23:49;;;;;;;3.77;2.20;;;;;;;17.28;94.19;99639.25;5091703;28;20214;-74
2023/05/05 11:26:18;;;;;;;3.17;2.00;;;;;;;17.26;93.20;99638.56;5092013;28;20204;-79
2023/05/05 11:28:56;;;;;;;2.80;2.30;;;;;;;17.18;95.31;99652.19;5091783;28;20330;-78
2023/05/05 11:31:23;;;;;;;2.67;2.00;;;;;;;17.09;94.04;99640.09;5091844;28;20201;-77
2023/05/05 11:33:52;;;;;;;3.30;1.93;;;;;;;17.30;94.68;99633.94;5091322;28;20218;-75